This is the latest recevied weather packets stored in our database for station/object EA1GGY-1. If no packets are shown the sender has not sent any weather packets the latest 10 day(s).
| Time | Temp. | Humidity | Pressure | Rain* | Wind** | Luminosity | Snow |
|---|---|---|---|---|---|---|---|
| 1777982963 | 8.89° C | 74% | 1008.9 hPa | - | - | - | - |
| 1777982362 | 9.44° C | 73% | 1008.7 hPa | - | - | - | - |
| 1777981761 | 10.56° C | 71% | 1008.9 hPa | - | - | - | - |
| 1777981161 | 8.33° C | 78% | 1008.9 hPa | - | - | - | - |
| 1777980559 | 9.44° C | 72% | 1008.9 hPa | - | - | - | - |
| 1777979358 | 8.33° C | 78% | 1009.1 hPa | - | - | - | - |
| 1777978757 | 9.44° C | 73% | 1009 hPa | - | - | - | - |
| 1777978156 | 8.89° C | 74% | 1009 hPa | - | - | - | - |
| 1777977556 | 8.89° C | 74% | 1009.1 hPa | - | - | - | - |
| 1777976955 | 8.33° C | 76% | 1009.2 hPa | - | - | - | - |
| 1777976353 | 7.78° C | 77% | 1009.3 hPa | - | - | - | - |
| 1777975752 | 7.78° C | 79% | 1009.3 hPa | - | - | - | - |
| 1777975151 | 7.78° C | 75% | 1009.2 hPa | - | - | - | - |
| 1777974551 | 7.78° C | 76% | 1009.1 hPa | - | - | - | - |
| 1777973950 | 7.22° C | 78% | 1009.1 hPa | - | - | - | - |
| 1777973349 | 7.22° C | 76% | 1009.1 hPa | - | - | - | - |
| 1777972749 | 7.22° C | 77% | 1009.1 hPa | - | - | - | - |
| 1777972147 | 7.22° C | 77% | 1009 hPa | - | - | - | - |
| 1777971547 | 6.67° C | 78% | 1009 hPa | - | - | - | - |
| 1777970947 | 7.22° C | 75% | 1008.9 hPa | - | - | - | - |
| 1777970345 | 6.67° C | 77% | 1008.9 hPa | - | - | - | - |
| 1777969744 | 6.67° C | 77% | 1009 hPa | - | - | - | - |
| 1777969145 | 6.67° C | 75% | 1008.9 hPa | - | - | - | - |
| 1777968543 | 6.67° C | 77% | 1008.9 hPa | - | - | - | - |
| 1777967942 | 6.67° C | 77% | 1008.9 hPa | - | - | - | - |
* Rain since midnight (hover to see other rain measurements)
** Current wind speed in m/s (hover to see current wind gust speed)